createdAt,value
2023-01-06T00:00:03.525Z,88.54
2023-01-06T00:05:29.165Z,88.08
2023-01-06T00:10:32.138Z,87.14
2023-01-06T00:15:38.105Z,87.72
2023-01-06T00:20:42.442Z,87.34
2023-01-06T00:25:51.029Z,87.16
2023-01-06T00:30:54.337Z,86.82
2023-01-06T00:36:01.284Z,86.89
2023-01-06T00:41:05.889Z,87.35
2023-01-06T00:46:08.772Z,86.98
2023-01-06T00:51:13.154Z,87.91
2023-01-06T00:56:16.044Z,86.94
2023-01-06T01:01:19.591Z,87.99
2023-01-06T01:06:23.955Z,88.20
2023-01-06T01:11:44.927Z,88.44
2023-01-06T01:16:49.788Z,88.27
2023-01-06T01:21:54.554Z,86.59
2023-01-06T01:26:57.586Z,86.65
2023-01-06T01:32:00.993Z,87.16
2023-01-06T01:37:05.594Z,87.90
2023-01-06T01:42:16.809Z,88.03
2023-01-06T01:47:24.957Z,88.43
2023-01-06T01:52:29.873Z,87.79
2023-01-06T01:57:36.947Z,88.09
2023-01-06T02:02:40.761Z,88.14
2023-01-06T02:07:45.607Z,88.81
2023-01-06T02:12:51.523Z,89.05
2023-01-06T02:18:30.648Z,89.77
2023-01-06T02:24:35.054Z,88.09
2023-01-06T02:30:32.681Z,88.97
2023-01-06T02:36:00.907Z,88.82
2023-01-06T02:41:14.087Z,88.60
2023-01-06T02:46:28.874Z,88.34
2023-01-06T02:51:40.114Z,88.23
2023-01-06T02:56:50.154Z,89.39
2023-01-06T03:01:55.592Z,89.26
2023-01-06T03:07:03.476Z,89.57
2023-01-06T03:12:13.717Z,89.90
2023-01-06T03:17:16.730Z,89.50
2023-01-06T03:22:23.061Z,89.36
2023-01-06T03:27:27.808Z,90.93
2023-01-06T03:32:40.442Z,89.87
2023-01-06T03:37:54.605Z,89.83
2023-01-06T03:43:13.349Z,89.26
2023-01-06T03:48:27.367Z,89.32
2023-01-06T03:53:38.660Z,90.18
2023-01-06T03:58:42.742Z,91.44
2023-01-06T04:03:48.185Z,91.63
2023-01-06T04:08:52.716Z,90.40
2023-01-06T04:13:56.069Z,90.67
2023-01-06T04:18:59.136Z,89.33
2023-01-06T04:24:03.954Z,89.75
2023-01-06T04:29:07.204Z,90.55
2023-01-06T04:34:10.640Z,89.78
2023-01-06T04:39:15.060Z,89.76
2023-01-06T04:44:17.911Z,88.40
2023-01-06T04:49:20.813Z,88.36
2023-01-06T04:54:25.076Z,90.02
2023-01-06T04:59:27.992Z,92.06
2023-01-06T05:04:40.062Z,90.27
2023-01-06T05:09:51.252Z,90.37
2023-01-06T05:14:54.161Z,90.57
2023-01-06T05:19:57.099Z,90.24
2023-01-06T05:25:01.314Z,91.70
2023-01-06T05:30:04.493Z,91.18
2023-01-06T05:35:08.151Z,91.71
2023-01-06T05:40:12.999Z,91.30
2023-01-06T05:45:15.971Z,90.42
2023-01-06T05:50:19.565Z,91.05
2023-01-06T05:55:23.858Z,94.57
2023-01-06T06:00:26.833Z,93.36
2023-01-06T06:05:29.709Z,92.24
2023-01-06T06:10:33.963Z,91.07
2023-01-06T06:15:37.236Z,91.05
2023-01-06T06:20:40.134Z,91.63
2023-01-06T06:25:44.331Z,91.74
2023-01-06T06:30:47.245Z,91.99
2023-01-06T06:35:57.558Z,91.58
2023-01-06T06:41:01.864Z,92.36
2023-01-06T06:46:05.035Z,94.04
2023-01-06T06:51:09.488Z,94.93
2023-01-06T06:56:14.931Z,97.11
2023-01-06T07:01:20.417Z,96.22
2023-01-06T07:06:27.961Z,96.67
2023-01-06T07:11:33.014Z,96.69
2023-01-06T07:16:35.876Z,96.46
2023-01-06T07:21:39.444Z,97.28
2023-01-06T07:26:43.683Z,97.07
2023-01-06T07:31:46.590Z,97.47
2023-01-06T07:36:49.544Z,96.75
2023-01-06T07:41:53.823Z,96.88
2023-01-06T07:46:56.670Z,97.73
2023-01-06T07:51:59.673Z,96.74
2023-01-06T07:57:04.024Z,95.32
2023-01-06T08:02:07.250Z,94.92
2023-01-06T08:07:10.187Z,95.77
2023-01-06T08:12:14.468Z,95.77
2023-01-06T08:17:17.407Z,95.50
2023-01-06T08:22:20.306Z,94.90
2023-01-06T08:27:24.558Z,94.94
2023-01-06T08:32:27.428Z,94.82
2023-01-06T08:37:31.913Z,93.71
2023-01-06T08:42:36.225Z,93.46
2023-01-06T08:47:39.143Z,92.68
2023-01-06T08:52:42.059Z,92.23
2023-01-06T08:57:46.384Z,91.77
2023-01-06T09:02:49.339Z,91.44
2023-01-06T09:07:52.209Z,90.88
2023-01-06T09:12:56.485Z,89.92
2023-01-06T09:17:59.425Z,89.83
2023-01-06T09:23:02.365Z,89.03
2023-01-06T09:28:06.716Z,89.26
2023-01-06T09:33:09.655Z,88.92
2023-01-06T09:38:12.608Z,89.22
2023-01-06T09:43:29.886Z,89.01
2023-01-06T09:48:37.989Z,88.88
2023-01-06T09:53:45.694Z,88.18
2023-01-06T09:58:53.908Z,86.34
2023-01-06T10:03:58.445Z,86.19
2023-01-06T10:09:19.052Z,86.20
2023-01-06T10:14:38.639Z,85.03
2023-01-06T10:19:59.932Z,83.25
2023-01-06T10:25:12.502Z,83.20
2023-01-06T10:30:21.437Z,82.65
2023-01-06T10:35:27.832Z,82.37
2023-01-06T10:40:32.282Z,82.11
2023-01-06T10:45:40.220Z,82.12
2023-01-06T10:50:43.279Z,81.55
2023-01-06T10:55:50.619Z,80.70
2023-01-06T11:01:01.014Z,80.58
2023-01-06T11:06:08.932Z,79.20
2023-01-06T11:11:27.268Z,79.53
2023-01-06T11:16:34.134Z,78.97
2023-01-06T11:21:42.280Z,78.72
2023-01-06T11:26:47.080Z,78.74
2023-01-06T11:31:51.760Z,79.00
2023-01-06T11:36:54.809Z,77.88
2023-01-06T11:42:04.248Z,78.25
2023-01-06T11:47:13.894Z,78.08
2023-01-06T11:52:25.707Z,77.94
2023-01-06T11:57:36.667Z,77.91
2023-01-06T12:02:51.875Z,77.66
2023-01-06T12:07:58.659Z,77.52
2023-01-06T12:13:01.713Z,77.27
2023-01-06T12:18:13.948Z,78.04
2023-01-06T12:23:23.151Z,78.09
2023-01-06T12:28:31.460Z,79.20
2023-01-06T12:33:41.005Z,79.23
2023-01-06T12:38:53.936Z,80.56
2023-01-06T12:44:01.480Z,83.83
2023-01-06T12:49:12.373Z,84.31
2023-01-06T12:54:21.432Z,85.56
2023-01-06T12:59:36.305Z,84.36
2023-01-06T13:05:06.400Z,83.77
2023-01-06T13:10:24.566Z,80.70
2023-01-06T13:15:30.132Z,78.17
2023-01-06T13:20:38.533Z,77.29
2023-01-06T13:26:14.582Z,77.08
2023-01-06T13:31:33.480Z,76.61
2023-01-06T13:37:04.176Z,75.57
2023-01-06T13:42:09.400Z,75.75
2023-01-06T13:47:15.890Z,74.66
2023-01-06T13:52:23.984Z,74.00
2023-01-06T13:57:32.627Z,74.32
2023-01-06T14:03:14.617Z,74.10
2023-01-06T14:08:21.122Z,74.39
2023-01-06T14:13:26.496Z,74.26
2023-01-06T14:18:39.517Z,74.87
2023-01-06T14:23:53.850Z,74.49
2023-01-06T14:29:03.064Z,74.33
2023-01-06T14:34:11.797Z,74.57
2023-01-06T14:39:26.679Z,73.65
2023-01-06T14:44:44.398Z,73.95
2023-01-06T14:49:55.524Z,73.84
2023-01-06T14:55:00.777Z,74.01
2023-01-06T15:00:08.547Z,73.68
2023-01-06T15:05:19.402Z,72.90
2023-01-06T15:10:23.847Z,72.87
2023-01-06T15:15:28.953Z,72.61
2023-01-06T15:20:35.228Z,72.18
2023-01-06T15:25:40.874Z,72.39
2023-01-06T15:30:50.606Z,72.65
2023-01-06T15:35:55.118Z,73.27
2023-01-06T15:41:00.056Z,72.12
2023-01-06T15:46:05.737Z,73.63
2023-01-06T15:51:13.101Z,72.51
2023-01-06T15:56:21.784Z,74.05
2023-01-06T16:01:25.399Z,72.25
2023-01-06T16:06:30.974Z,72.93
2023-01-06T16:11:52.802Z,73.04
2023-01-06T16:17:03.697Z,72.88
2023-01-06T16:22:09.655Z,73.80
2023-01-06T16:27:13.932Z,74.20
2023-01-06T16:32:29.046Z,74.45
2023-01-06T16:37:34.035Z,74.95
2023-01-06T16:42:42.684Z,75.10
2023-01-06T16:47:46.525Z,74.52
2023-01-06T16:53:06.047Z,74.69
2023-01-06T16:58:17.547Z,74.99
2023-01-06T17:03:22.432Z,75.10
2023-01-06T17:08:29.089Z,75.70
2023-01-06T17:13:36.107Z,75.76
2023-01-06T17:18:49.308Z,76.25
2023-01-06T17:23:55.895Z,77.29
2023-01-06T17:29:01.731Z,77.67
2023-01-06T17:34:13.407Z,78.03
2023-01-06T17:39:23.782Z,78.17
2023-01-06T17:44:35.023Z,78.06
2023-01-06T17:49:37.914Z,78.18
2023-01-06T17:54:58.061Z,78.32
2023-01-06T18:00:03.653Z,79.29
2023-01-06T18:05:55.601Z,78.84
2023-01-06T18:11:15.426Z,78.66
2023-01-06T18:16:28.014Z,78.46
2023-01-06T18:21:39.257Z,78.86
2023-01-06T18:26:47.637Z,78.42
2023-01-06T18:31:53.557Z,78.50
2023-01-06T18:36:58.606Z,79.43
2023-01-06T18:42:14.095Z,79.20
2023-01-06T18:47:22.634Z,78.87
2023-01-06T18:52:35.423Z,78.52
2023-01-06T18:57:38.318Z,78.51
2023-01-06T19:02:42.702Z,79.14
2023-01-06T19:07:45.626Z,78.78
2023-01-06T19:12:48.543Z,79.19
2023-01-06T19:17:53.986Z,78.64
2023-01-06T19:22:57.551Z,78.43
2023-01-06T19:28:01.648Z,78.53
2023-01-06T19:33:31.402Z,79.02
2023-01-06T19:38:39.400Z,79.14
2023-01-06T19:43:42.305Z,78.76
2023-01-06T19:48:47.011Z,79.40
2023-01-06T19:53:52.214Z,79.02
2023-01-06T19:58:59.626Z,79.61
2023-01-06T20:04:03.986Z,79.50
2023-01-06T20:09:06.927Z,79.37
2023-01-06T20:14:11.053Z,79.34
2023-01-06T20:19:16.651Z,79.58
2023-01-06T20:24:19.635Z,79.23
2023-01-06T20:29:22.575Z,80.00
2023-01-06T20:34:27.015Z,80.02
2023-01-06T20:39:30.595Z,79.77
2023-01-06T20:44:33.487Z,80.13
2023-01-06T20:49:38.820Z,79.88
2023-01-06T20:54:41.942Z,79.62
2023-01-06T20:59:44.835Z,79.46
2023-01-06T21:04:49.225Z,79.59
2023-01-06T21:09:52.196Z,79.53
2023-01-06T21:14:55.131Z,79.45
2023-01-06T21:20:00.144Z,79.60
2023-01-06T21:25:03.116Z,79.25
2023-01-06T21:30:06.908Z,79.60
2023-01-06T21:35:11.600Z,79.76
2023-01-06T21:40:15.023Z,79.84
2023-01-06T21:45:18.013Z,79.70
2023-01-06T21:50:25.458Z,80.05
2023-01-06T21:55:29.946Z,80.03
2023-01-06T22:00:32.898Z,79.62
2023-01-06T22:05:37.214Z,80.40
2023-01-06T22:10:42.819Z,80.40
2023-01-06T22:15:45.812Z,79.71
2023-01-06T22:20:50.189Z,79.87
2023-01-06T22:25:53.086Z,80.11
2023-01-06T22:30:56.388Z,80.21
2023-01-06T22:36:00.744Z,80.04
2023-01-06T22:41:03.687Z,79.89
2023-01-06T22:46:06.970Z,79.63
2023-01-06T22:51:11.390Z,79.38
2023-01-06T22:56:14.313Z,79.64
2023-01-06T23:01:17.698Z,79.49
2023-01-06T23:06:22.280Z,79.35
2023-01-06T23:11:27.592Z,79.53
2023-01-06T23:16:30.760Z,80.05
2023-01-06T23:21:36.244Z,80.20
2023-01-06T23:26:41.228Z,80.91
2023-01-06T23:31:46.319Z,79.80
2023-01-06T23:36:50.645Z,80.16
2023-01-06T23:41:55.166Z,80.26
2023-01-06T23:46:58.049Z,80.13
2023-01-06T23:52:02.246Z,80.25
2023-01-06T23:57:05.211Z,80.75
